sensor_id;sensor_type;location;lat;lon;timestamp;P1;durP1;ratioP1;P2;durP2;ratioP2
4959;SDS011;2495;48.200;11.532;2022-10-15T00:01:12;1.10;;;0.60;;
4959;SDS011;2495;48.200;11.532;2022-10-15T00:06:14;1.00;;;0.60;;
4959;SDS011;2495;48.200;11.532;2022-10-15T00:11:16;1.00;;;0.60;;
4959;SDS011;2495;48.200;11.532;2022-10-15T00:16:18;1.00;;;0.60;;
4959;SDS011;2495;48.200;11.532;2022-10-15T00:21:18;1.10;;;0.60;;
4959;SDS011;2495;48.200;11.532;2022-10-15T00:26:21;1.00;;;0.50;;
4959;SDS011;2495;48.200;11.532;2022-10-15T00:31:21;1.00;;;0.60;;
4959;SDS011;2495;48.200;11.532;2022-10-15T00:36:23;1.00;;;0.60;;
4959;SDS011;2495;48.200;11.532;2022-10-15T00:41:35;1.00;;;0.60;;
4959;SDS011;2495;48.200;11.532;2022-10-15T00:46:39;1.10;;;0.60;;
4959;SDS011;2495;48.200;11.532;2022-10-15T00:56:59;1.00;;;0.60;;
4959;SDS011;2495;48.200;11.532;2022-10-15T01:02:03;1.00;;;0.60;;
4959;SDS011;2495;48.200;11.532;2022-10-15T01:07:04;1.00;;;0.60;;
4959;SDS011;2495;48.200;11.532;2022-10-15T01:12:06;1.00;;;0.50;;
4959;SDS011;2495;48.200;11.532;2022-10-15T01:34:20;1.00;;;0.60;;
4959;SDS011;2495;48.200;11.532;2022-10-15T01:44:36;1.00;;;0.70;;
4959;SDS011;2495;48.200;11.532;2022-10-15T01:49:43;1.00;;;0.50;;
4959;SDS011;2495;48.200;11.532;2022-10-15T01:54:46;1.10;;;0.60;;
4959;SDS011;2495;48.200;11.532;2022-10-15T01:59:48;1.10;;;0.70;;
4959;SDS011;2495;48.200;11.532;2022-10-15T02:04:53;1.10;;;0.70;;
4959;SDS011;2495;48.200;11.532;2022-10-15T02:10:05;1.10;;;0.80;;
4959;SDS011;2495;48.200;11.532;2022-10-15T02:15:18;1.10;;;0.90;;
4959;SDS011;2495;48.200;11.532;2022-10-15T02:20:58;1.10;;;0.90;;
4959;SDS011;2495;48.200;11.532;2022-10-15T02:25:58;1.20;;;0.97;;
4959;SDS011;2495;48.200;11.532;2022-10-15T02:31:00;1.20;;;1.10;;
4959;SDS011;2495;48.200;11.532;2022-10-15T02:36:02;1.40;;;1.30;;
4959;SDS011;2495;48.200;11.532;2022-10-15T02:41:03;1.30;;;1.20;;
4959;SDS011;2495;48.200;11.532;2022-10-15T02:46:05;1.43;;;1.33;;
4959;SDS011;2495;48.200;11.532;2022-10-15T02:51:06;1.30;;;1.20;;
4959;SDS011;2495;48.200;11.532;2022-10-15T02:56:07;1.70;;;1.60;;
4959;SDS011;2495;48.200;11.532;2022-10-15T03:01:09;1.50;;;1.40;;
4959;SDS011;2495;48.200;11.532;2022-10-15T03:06:11;1.50;;;1.40;;
4959;SDS011;2495;48.200;11.532;2022-10-15T03:11:13;1.43;;;1.33;;
4959;SDS011;2495;48.200;11.532;2022-10-15T03:16:14;1.30;;;1.20;;
4959;SDS011;2495;48.200;11.532;2022-10-15T03:21:15;1.40;;;1.30;;
4959;SDS011;2495;48.200;11.532;2022-10-15T03:26:16;1.50;;;1.40;;
4959;SDS011;2495;48.200;11.532;2022-10-15T03:31:21;1.60;;;1.50;;
4959;SDS011;2495;48.200;11.532;2022-10-15T03:36:22;1.60;;;1.50;;
4959;SDS011;2495;48.200;11.532;2022-10-15T03:46:29;1.70;;;1.60;;
4959;SDS011;2495;48.200;11.532;2022-10-15T03:51:30;1.10;;;0.80;;
4959;SDS011;2495;48.200;11.532;2022-10-15T03:56:31;1.60;;;1.50;;
4959;SDS011;2495;48.200;11.532;2022-10-15T04:01:33;1.70;;;1.60;;
4959;SDS011;2495;48.200;11.532;2022-10-15T04:06:34;1.80;;;1.70;;
4959;SDS011;2495;48.200;11.532;2022-10-15T04:11:38;2.00;;;1.90;;
4959;SDS011;2495;48.200;11.532;2022-10-15T04:16:41;1.90;;;1.80;;
4959;SDS011;2495;48.200;11.532;2022-10-15T04:21:42;2.10;;;2.00;;
4959;SDS011;2495;48.200;11.532;2022-10-15T04:26:44;2.10;;;2.00;;
4959;SDS011;2495;48.200;11.532;2022-10-15T04:31:45;2.10;;;2.00;;
4959;SDS011;2495;48.200;11.532;2022-10-15T04:36:50;2.10;;;2.00;;
4959;SDS011;2495;48.200;11.532;2022-10-15T04:41:52;2.10;;;2.00;;
4959;SDS011;2495;48.200;11.532;2022-10-15T04:46:53;2.80;;;2.60;;
4959;SDS011;2495;48.200;11.532;2022-10-15T04:51:55;3.00;;;2.80;;
4959;SDS011;2495;48.200;11.532;2022-10-15T04:56:56;1.60;;;1.50;;
4959;SDS011;2495;48.200;11.532;2022-10-15T05:02:07;2.83;;;2.63;;
4959;SDS011;2495;48.200;11.532;2022-10-15T05:07:18;2.90;;;2.70;;
4959;SDS011;2495;48.200;11.532;2022-10-15T05:12:19;3.30;;;3.10;;
4959;SDS011;2495;48.200;11.532;2022-10-15T05:17:21;3.30;;;3.10;;
4959;SDS011;2495;48.200;11.532;2022-10-15T05:22:26;3.57;;;3.37;;
4959;SDS011;2495;48.200;11.532;2022-10-15T05:27:27;3.90;;;3.70;;
4959;SDS011;2495;48.200;11.532;2022-10-15T05:32:29;3.60;;;3.40;;
4959;SDS011;2495;48.200;11.532;2022-10-15T05:37:30;3.60;;;3.40;;
4959;SDS011;2495;48.200;11.532;2022-10-15T05:42:34;3.40;;;3.20;;
4959;SDS011;2495;48.200;11.532;2022-10-15T05:47:35;4.00;;;3.80;;
4959;SDS011;2495;48.200;11.532;2022-10-15T05:52:37;3.87;;;3.67;;
4959;SDS011;2495;48.200;11.532;2022-10-15T05:57:38;3.60;;;3.40;;
4959;SDS011;2495;48.200;11.532;2022-10-15T06:02:39;3.40;;;3.20;;
4959;SDS011;2495;48.200;11.532;2022-10-15T06:07:41;3.50;;;3.30;;
4959;SDS011;2495;48.200;11.532;2022-10-15T06:12:47;3.30;;;3.10;;
4959;SDS011;2495;48.200;11.532;2022-10-15T06:17:44;3.57;;;3.37;;
4959;SDS011;2495;48.200;11.532;2022-10-15T06:22:45;3.40;;;3.20;;
4959;SDS011;2495;48.200;11.532;2022-10-15T06:27:47;3.40;;;3.20;;
4959;SDS011;2495;48.200;11.532;2022-10-15T06:32:51;3.30;;;3.10;;
4959;SDS011;2495;48.200;11.532;2022-10-15T06:37:50;3.50;;;3.30;;
4959;SDS011;2495;48.200;11.532;2022-10-15T06:42:52;3.40;;;3.20;;
4959;SDS011;2495;48.200;11.532;2022-10-15T06:47:53;3.80;;;3.60;;
4959;SDS011;2495;48.200;11.532;2022-10-15T06:52:55;3.50;;;3.30;;
4959;SDS011;2495;48.200;11.532;2022-10-15T06:57:57;3.80;;;3.60;;
4959;SDS011;2495;48.200;11.532;2022-10-15T07:03:02;3.60;;;3.40;;
4959;SDS011;2495;48.200;11.532;2022-10-15T07:08:06;3.60;;;3.40;;
4959;SDS011;2495;48.200;11.532;2022-10-15T07:13:07;3.20;;;3.00;;
4959;SDS011;2495;48.200;11.532;2022-10-15T07:18:08;3.00;;;2.80;;
4959;SDS011;2495;48.200;11.532;2022-10-15T07:23:10;3.10;;;2.90;;
4959;SDS011;2495;48.200;11.532;2022-10-15T07:28:11;3.30;;;3.10;;
4959;SDS011;2495;48.200;11.532;2022-10-15T07:33:13;3.20;;;3.00;;
4959;SDS011;2495;48.200;11.532;2022-10-15T07:38:14;3.10;;;2.90;;
4959;SDS011;2495;48.200;11.532;2022-10-15T07:43:16;3.30;;;3.10;;
4959;SDS011;2495;48.200;11.532;2022-10-15T07:53:39;1.67;;;1.58;;
4959;SDS011;2495;48.200;11.532;2022-10-15T08:03:55;1.50;;;1.40;;
4959;SDS011;2495;48.200;11.532;2022-10-15T08:08:56;3.30;;;3.10;;
4959;SDS011;2495;48.200;11.532;2022-10-15T08:13:58;3.60;;;3.40;;
4959;SDS011;2495;48.200;11.532;2022-10-15T08:18:59;3.90;;;3.70;;
4959;SDS011;2495;48.200;11.532;2022-10-15T08:24:03;3.90;;;3.70;;
4959;SDS011;2495;48.200;11.532;2022-10-15T08:29:05;3.97;;;3.77;;
4959;SDS011;2495;48.200;11.532;2022-10-15T08:34:07;3.80;;;3.60;;
4959;SDS011;2495;48.200;11.532;2022-10-15T08:39:08;3.80;;;3.60;;
4959;SDS011;2495;48.200;11.532;2022-10-15T08:44:29;3.40;;;3.20;;
4959;SDS011;2495;48.200;11.532;2022-10-15T08:49:34;3.80;;;3.60;;
4959;SDS011;2495;48.200;11.532;2022-10-15T08:54:34;4.50;;;4.30;;
4959;SDS011;2495;48.200;11.532;2022-10-15T08:59:39;5.50;;;5.20;;
4959;SDS011;2495;48.200;11.532;2022-10-15T09:10:38;6.00;;;5.70;;
4959;SDS011;2495;48.200;11.532;2022-10-15T09:20:58;3.90;;;3.70;;
4959;SDS011;2495;48.200;11.532;2022-10-15T09:31:28;6.70;;;6.40;;
4959;SDS011;2495;48.200;11.532;2022-10-15T09:36:28;6.70;;;6.40;;
4959;SDS011;2495;48.200;11.532;2022-10-15T09:47:24;7.20;;;6.90;;
4959;SDS011;2495;48.200;11.532;2022-10-15T09:52:38;4.97;;;4.67;;
4959;SDS011;2495;48.200;11.532;2022-10-15T09:57:57;7.50;;;7.10;;
4959;SDS011;2495;48.200;11.532;2022-10-15T10:03:05;7.53;;;7.13;;
4959;SDS011;2495;48.200;11.532;2022-10-15T10:14:09;7.10;;;6.80;;
4959;SDS011;2495;48.200;11.532;2022-10-15T10:18:25;3.90;;;3.70;;
4959;SDS011;2495;48.200;11.532;2022-10-15T10:23:34;4.47;;;4.27;;
4959;SDS011;2495;48.200;11.532;2022-10-15T10:34:19;4.40;;;4.20;;
4959;SDS011;2495;48.200;11.532;2022-10-15T10:44:40;2.80;;;2.60;;
4959;SDS011;2495;48.200;11.532;2022-10-15T10:49:45;4.40;;;4.20;;
4959;SDS011;2495;48.200;11.532;2022-10-15T10:59:58;3.17;;;2.97;;
4959;SDS011;2495;48.200;11.532;2022-10-15T11:05:00;3.50;;;3.30;;
4959;SDS011;2495;48.200;11.532;2022-10-15T11:42:38;3.10;;;2.90;;
4959;SDS011;2495;48.200;11.532;2022-10-15T11:48:00;2.10;;;2.00;;
4959;SDS011;2495;48.200;11.532;2022-10-15T11:58:59;1.70;;;1.60;;
4959;SDS011;2495;48.200;11.532;2022-10-15T12:04:05;1.90;;;1.80;;
4959;SDS011;2495;48.200;11.532;2022-10-15T12:09:07;1.50;;;1.40;;
4959;SDS011;2495;48.200;11.532;2022-10-15T12:14:30;1.20;;;1.10;;
4959;SDS011;2495;48.200;11.532;2022-10-15T12:19:35;1.20;;;1.00;;
4959;SDS011;2495;48.200;11.532;2022-10-15T12:29:52;1.10;;;0.80;;
4959;SDS011;2495;48.200;11.532;2022-10-15T12:34:56;1.10;;;0.70;;
4959;SDS011;2495;48.200;11.532;2022-10-15T12:40:03;1.00;;;0.50;;
4959;SDS011;2495;48.200;11.532;2022-10-15T12:45:05;1.10;;;0.60;;
4959;SDS011;2495;48.200;11.532;2022-10-15T12:50:15;1.00;;;0.60;;
4959;SDS011;2495;48.200;11.532;2022-10-15T12:55:21;1.00;;;0.60;;
4959;SDS011;2495;48.200;11.532;2022-10-15T13:00:34;1.00;;;0.60;;
4959;SDS011;2495;48.200;11.532;2022-10-15T13:05:38;1.00;;;0.60;;
4959;SDS011;2495;48.200;11.532;2022-10-15T13:10:41;1.00;;;0.60;;
4959;SDS011;2495;48.200;11.532;2022-10-15T13:15:41;1.00;;;0.50;;
4959;SDS011;2495;48.200;11.532;2022-10-15T13:20:43;1.00;;;0.60;;
4959;SDS011;2495;48.200;11.532;2022-10-15T13:25:44;1.00;;;0.60;;
4959;SDS011;2495;48.200;11.532;2022-10-15T13:30:47;1.00;;;0.60;;
4959;SDS011;2495;48.200;11.532;2022-10-15T13:35:48;1.00;;;0.60;;
4959;SDS011;2495;48.200;11.532;2022-10-15T13:40:50;1.00;;;0.60;;
4959;SDS011;2495;48.200;11.532;2022-10-15T13:45:55;1.00;;;0.60;;
4959;SDS011;2495;48.200;11.532;2022-10-15T13:50:57;1.00;;;0.60;;
4959;SDS011;2495;48.200;11.532;2022-10-15T13:56:13;1.00;;;0.60;;
4959;SDS011;2495;48.200;11.532;2022-10-15T14:01:43;1.00;;;0.60;;
4959;SDS011;2495;48.200;11.532;2022-10-15T14:12:09;1.00;;;0.50;;
4959;SDS011;2495;48.200;11.532;2022-10-15T14:17:21;1.00;;;0.60;;
4959;SDS011;2495;48.200;11.532;2022-10-15T14:22:25;4.23;;;2.20;;
4959;SDS011;2495;48.200;11.532;2022-10-15T14:27:31;1.00;;;0.60;;
4959;SDS011;2495;48.200;11.532;2022-10-15T14:32:44;1.00;;;0.60;;
4959;SDS011;2495;48.200;11.532;2022-10-15T14:37:56;1.00;;;0.60;;
4959;SDS011;2495;48.200;11.532;2022-10-15T14:43:05;1.00;;;0.60;;
4959;SDS011;2495;48.200;11.532;2022-10-15T14:48:17;1.00;;;0.60;;
4959;SDS011;2495;48.200;11.532;2022-10-15T14:53:38;1.00;;;0.60;;
4959;SDS011;2495;48.200;11.532;2022-10-15T14:58:40;1.00;;;0.60;;
4959;SDS011;2495;48.200;11.532;2022-10-15T15:03:43;1.00;;;0.60;;
4959;SDS011;2495;48.200;11.532;2022-10-15T15:40:41;1.00;;;0.50;;
4959;SDS011;2495;48.200;11.532;2022-10-15T15:46:20;1.00;;;0.60;;
4959;SDS011;2495;48.200;11.532;2022-10-15T15:57:22;1.00;;;0.60;;
4959;SDS011;2495;48.200;11.532;2022-10-15T16:02:50;1.00;;;0.60;;
4959;SDS011;2495;48.200;11.532;2022-10-15T16:08:37;1.00;;;0.60;;
4959;SDS011;2495;48.200;11.532;2022-10-15T16:14:01;1.00;;;0.60;;
4959;SDS011;2495;48.200;11.532;2022-10-15T16:19:09;1.00;;;0.60;;
4959;SDS011;2495;48.200;11.532;2022-10-15T16:24:25;1.00;;;0.60;;
4959;SDS011;2495;48.200;11.532;2022-10-15T16:29:39;1.00;;;0.60;;
4959;SDS011;2495;48.200;11.532;2022-10-15T16:35:13;1.00;;;0.60;;
4959;SDS011;2495;48.200;11.532;2022-10-15T16:40:17;1.00;;;0.60;;
4959;SDS011;2495;48.200;11.532;2022-10-15T16:45:16;1.00;;;0.60;;
4959;SDS011;2495;48.200;11.532;2022-10-15T16:50:19;1.00;;;0.60;;
4959;SDS011;2495;48.200;11.532;2022-10-15T16:55:24;1.00;;;0.60;;
4959;SDS011;2495;48.200;11.532;2022-10-15T17:00:42;1.00;;;0.60;;
4959;SDS011;2495;48.200;11.532;2022-10-15T17:06:08;1.00;;;0.60;;
4959;SDS011;2495;48.200;11.532;2022-10-15T17:11:12;1.00;;;0.60;;
4959;SDS011;2495;48.200;11.532;2022-10-15T17:16:17;1.00;;;0.60;;
4959;SDS011;2495;48.200;11.532;2022-10-15T17:21:19;1.00;;;0.60;;
4959;SDS011;2495;48.200;11.532;2022-10-15T17:26:21;1.00;;;0.60;;
4959;SDS011;2495;48.200;11.532;2022-10-15T17:31:22;1.00;;;0.60;;
4959;SDS011;2495;48.200;11.532;2022-10-15T17:36:23;1.00;;;0.60;;
4959;SDS011;2495;48.200;11.532;2022-10-15T17:41:25;1.00;;;0.60;;
4959;SDS011;2495;48.200;11.532;2022-10-15T17:46:26;1.00;;;0.60;;
4959;SDS011;2495;48.200;11.532;2022-10-15T17:51:28;1.00;;;0.57;;
4959;SDS011;2495;48.200;11.532;2022-10-15T17:56:30;1.00;;;0.60;;
4959;SDS011;2495;48.200;11.532;2022-10-15T18:01:32;1.00;;;0.60;;
4959;SDS011;2495;48.200;11.532;2022-10-15T18:06:32;1.00;;;0.60;;
4959;SDS011;2495;48.200;11.532;2022-10-15T18:11:34;1.00;;;0.60;;
4959;SDS011;2495;48.200;11.532;2022-10-15T18:16:36;1.00;;;0.80;;
4959;SDS011;2495;48.200;11.532;2022-10-15T18:21:41;1.00;;;0.60;;
4959;SDS011;2495;48.200;11.532;2022-10-15T18:26:43;1.00;;;0.60;;
4959;SDS011;2495;48.200;11.532;2022-10-15T18:31:44;1.00;;;0.60;;
4959;SDS011;2495;48.200;11.532;2022-10-15T18:36:46;1.00;;;0.60;;
4959;SDS011;2495;48.200;11.532;2022-10-15T18:41:48;1.10;;;0.80;;
4959;SDS011;2495;48.200;11.532;2022-10-15T18:46:49;1.00;;;0.60;;
4959;SDS011;2495;48.200;11.532;2022-10-15T18:51:50;1.00;;;0.63;;
4959;SDS011;2495;48.200;11.532;2022-10-15T18:56:52;1.00;;;0.60;;
4959;SDS011;2495;48.200;11.532;2022-10-15T19:01:53;1.00;;;0.60;;
4959;SDS011;2495;48.200;11.532;2022-10-15T19:06:55;1.00;;;0.60;;
4959;SDS011;2495;48.200;11.532;2022-10-15T19:11:57;4.10;;;1.40;;
4959;SDS011;2495;48.200;11.532;2022-10-15T19:16:59;1.00;;;0.60;;
4959;SDS011;2495;48.200;11.532;2022-10-15T19:22:00;1.00;;;0.50;;
4959;SDS011;2495;48.200;11.532;2022-10-15T19:27:02;1.00;;;0.50;;
4959;SDS011;2495;48.200;11.532;2022-10-15T19:32:04;1.00;;;0.57;;
4959;SDS011;2495;48.200;11.532;2022-10-15T19:37:05;1.00;;;0.60;;
4959;SDS011;2495;48.200;11.532;2022-10-15T19:42:07;1.00;;;0.50;;
4959;SDS011;2495;48.200;11.532;2022-10-15T19:47:08;1.00;;;0.60;;
4959;SDS011;2495;48.200;11.532;2022-10-15T19:52:09;1.00;;;0.60;;
4959;SDS011;2495;48.200;11.532;2022-10-15T19:57:12;1.00;;;0.60;;
4959;SDS011;2495;48.200;11.532;2022-10-15T20:02:13;1.83;;;1.43;;
4959;SDS011;2495;48.200;11.532;2022-10-15T20:07:15;2.40;;;1.63;;
4959;SDS011;2495;48.200;11.532;2022-10-15T20:12:16;1.00;;;0.60;;
4959;SDS011;2495;48.200;11.532;2022-10-15T20:17:19;1.00;;;0.60;;
4959;SDS011;2495;48.200;11.532;2022-10-15T20:22:20;1.00;;;0.60;;
4959;SDS011;2495;48.200;11.532;2022-10-15T20:27:22;1.00;;;0.60;;
4959;SDS011;2495;48.200;11.532;2022-10-15T20:32:24;1.00;;;0.60;;
4959;SDS011;2495;48.200;11.532;2022-10-15T20:37:25;1.00;;;0.60;;
4959;SDS011;2495;48.200;11.532;2022-10-15T20:42:28;1.00;;;0.60;;
4959;SDS011;2495;48.200;11.532;2022-10-15T20:47:33;1.00;;;0.60;;
4959;SDS011;2495;48.200;11.532;2022-10-15T20:52:34;1.00;;;0.60;;
4959;SDS011;2495;48.200;11.532;2022-10-15T20:57:37;1.00;;;0.60;;
4959;SDS011;2495;48.200;11.532;2022-10-15T21:02:38;1.00;;;0.60;;
4959;SDS011;2495;48.200;11.532;2022-10-15T21:07:42;1.00;;;0.60;;
4959;SDS011;2495;48.200;11.532;2022-10-15T21:19:38;1.00;;;0.60;;
4959;SDS011;2495;48.200;11.532;2022-10-15T21:25:05;1.00;;;0.60;;
4959;SDS011;2495;48.200;11.532;2022-10-15T21:30:57;1.00;;;0.60;;
4959;SDS011;2495;48.200;11.532;2022-10-15T21:36:25;1.00;;;0.60;;
4959;SDS011;2495;48.200;11.532;2022-10-15T21:41:53;1.00;;;0.60;;
4959;SDS011;2495;48.200;11.532;2022-10-15T21:46:55;1.00;;;0.60;;
4959;SDS011;2495;48.200;11.532;2022-10-15T21:51:57;1.00;;;0.60;;
4959;SDS011;2495;48.200;11.532;2022-10-15T21:56:59;1.00;;;0.60;;
4959;SDS011;2495;48.200;11.532;2022-10-15T22:02:00;1.00;;;0.60;;
4959;SDS011;2495;48.200;11.532;2022-10-15T22:07:02;1.00;;;0.60;;
4959;SDS011;2495;48.200;11.532;2022-10-15T22:12:03;1.00;;;0.60;;
4959;SDS011;2495;48.200;11.532;2022-10-15T22:17:05;1.00;;;0.60;;
4959;SDS011;2495;48.200;11.532;2022-10-15T22:22:07;1.00;;;0.60;;
4959;SDS011;2495;48.200;11.532;2022-10-15T22:27:09;1.00;;;0.60;;
4959;SDS011;2495;48.200;11.532;2022-10-15T22:32:10;1.00;;;0.60;;
4959;SDS011;2495;48.200;11.532;2022-10-15T22:37:11;1.00;;;0.60;;
4959;SDS011;2495;48.200;11.532;2022-10-15T22:42:13;1.00;;;0.60;;
4959;SDS011;2495;48.200;11.532;2022-10-15T22:47:14;0.98;;;0.50;;
4959;SDS011;2495;48.200;11.532;2022-10-15T22:52:16;1.00;;;0.60;;
4959;SDS011;2495;48.200;11.532;2022-10-15T22:57:17;1.00;;;0.60;;
4959;SDS011;2495;48.200;11.532;2022-10-15T23:02:19;1.00;;;0.60;;
4959;SDS011;2495;48.200;11.532;2022-10-15T23:07:20;1.00;;;0.60;;
4959;SDS011;2495;48.200;11.532;2022-10-15T23:12:22;1.00;;;0.60;;
4959;SDS011;2495;48.200;11.532;2022-10-15T23:17:23;1.00;;;0.60;;
4959;SDS011;2495;48.200;11.532;2022-10-15T23:22:25;1.00;;;0.60;;
4959;SDS011;2495;48.200;11.532;2022-10-15T23:27:26;1.00;;;0.60;;
4959;SDS011;2495;48.200;11.532;2022-10-15T23:32:27;1.00;;;0.60;;
4959;SDS011;2495;48.200;11.532;2022-10-15T23:37:29;1.00;;;0.60;;
4959;SDS011;2495;48.200;11.532;2022-10-15T23:42:30;1.00;;;0.60;;
4959;SDS011;2495;48.200;11.532;2022-10-15T23:47:32;1.00;;;0.60;;
4959;SDS011;2495;48.200;11.532;2022-10-15T23:52:33;1.00;;;0.60;;
4959;SDS011;2495;48.200;11.532;2022-10-15T23:57:35;1.00;;;0.60;;
